Terminal Aerodrome Forecast
Issued by NWS Austin/San Antonio, TX

Home | Current Version | Previous Version | Text Only | Print | Product List | Glossary On
Versions: 1 2 3 4 5 6 7 8 9 10 11 12 13 14 15 16 17 18 19
000
FTUS44 KEWX 251127
TAFDRT
TAF
KDRT 251127Z 2512/2612 VRB03KT P6SM SCT040
     FM251300 10005KT P6SM BKN015
     FM251900 12010KT P6SM VCSH BKN040
     FM260200 10010KT P6SM SCT150 BKN250=

USA.gov is the U.S. government's official web portal to all federal, state and local government web resources and services.